Impacts METAR Board
IDs:

KPNS - Pensacola Intl, FL, US

Updated at: 1000 UTC 16 Aug 2018
Potential Impact None Slight Moderate High
Time 15/22Z 15/23Z 16/00Z 16/01Z 16/02Z 16/03Z 16/04Z 16/05Z 16/06Z 16/07Z 16/08Z 16/09Z 16/10Z
Temp87 86 85 83 83 82 82 83 82 81 82 81 80
Dewpt74 75 74 75 75 75 75 75 74 74 74 74 72
Altim30.03 30.03 30.03 30.05 30.06 30.07 30.07 30.06 30.05 30.05 30.05 30.05 30.07
VIS10 10 10 10 10 10 10 10 10 10 10 10 10
CIG-- -- -- -- -- -- -- -- -- -- -- 34 --
CoverSCTSCTCLRSCTSCTCLRCLRSCTFEWCLRFEWBKNCLR
FltCatVFRVFRVFRVFRVFRVFRVFRVFRVFRVFRVFRVFRVFR
WX--------------------------
WDir210190170160180180190190160170190170250
WSpd9 8 9 6 7 6 5 5 8 6 5 5 5
WGst-- -- -- -- -- -- -- -- -- -- -- -- --
Raw hourly METARs
KPNS 152153Z 21009KT 10SM SCT025 31/23 A3003 RMK AO2 SLP171 T03060233
KPNS 152253Z 19008KT 10SM SCT027 30/24 A3003 RMK AO2 SLP169 T03000239
KPNS 152353Z 17009KT 10SM CLR 29/23 A3003 RMK AO2 SLP171 T02940233 10322 20294 53000
KPNS 160053Z COR 16006KT 10SM SCT030 28/24 A3005 RMK AO2 SLP175 T02830239
KPNS 160153Z 18007KT 10SM FEW022 SCT030 28/24 A3006 RMK AO2 SLP179 T02830239
KPNS 160253Z 18006KT 10SM CLR 28/24 A3007 RMK AO2 SLP184 T02780239 53012
KPNS 160353Z AUTO 19005KT 10SM CLR 28/24 A3007 RMK AO2 SLP182 T02780239
KPNS 160453Z AUTO 19005KT 10SM SCT023 28/24 A3006 RMK AO2 SLP180 T02830239
KPNS 160553Z AUTO 16008KT 10SM FEW022 28/23 A3005 RMK AO2 SLP178 T02780233 10294 20272 403220250 58006
KPNS 160653Z AUTO 17006KT 10SM CLR 27/23 A3005 RMK AO2 SLP175 T02720233
KPNS 160753Z AUTO 19005KT 10SM FEW025 FEW055 28/23 A3005 RMK AO2 SLP176 T02780233
KPNS 160853Z AUTO 17005KT 10SM SCT023 SCT028 BKN034 27/23 A3005 RMK AO2 SLP178 T02720233 55000
KPNS 160953Z AUTO 25005KT 10SM CLR 27/22 A3007 RMK AO2 LTG DSNT S SLP182 T02670222



Page loaded:  10:27 UTC  |   03:27 AM Pacific  |   04:27 AM Mountain  |   05:27 AM Central  |   06:27 AM Eastern

 

ADVISORIES

FORECASTS

FORECASTS

OBSERVATIONS

USER TOOLS

ABOUT US